Time;durP1;ratioP1;P1;durP2;ratioP2;P2;SDS_P1;SDS_P2;PMS_P1;PMS_P2;Temp;Humidity;BMP_temperature;BMP_pressure;BME280_temperature;BME280_humidity;BME280_pressure;Samples;Min_cycle;Max_cycle;Signal;HPM_P1;HPM_P2
2023/05/03 00:00:47;;;;;;;3.50;1.13;;;;;;;14.92;51.19;101572.06;4788997;29;20035;-84
2023/05/03 00:03:13;;;;;;;5.55;1.13;;;;;;;15.10;51.53;101591.09;4789396;29;20023;-84
2023/05/03 00:05:38;;;;;;;1.58;0.88;;;;;;;15.07;51.21;101588.66;4803945;29;20031;-83
2023/05/03 00:08:04;;;;;;;2.00;1.08;;;;;;;14.79;51.35;101567.56;4788921;29;20126;-84
2023/05/03 00:10:29;;;;;;;3.30;1.55;;;;;;;14.88;51.16;101580.13;4789086;29;20035;-84
2023/05/03 00:12:55;;;;;;;2.30;1.60;;;;;;;14.75;51.41;101581.66;4788827;29;20087;-85
2023/05/03 00:15:21;;;;;;;1.55;1.05;;;;;;;14.77;51.20;101600.66;4803719;29;20061;-84
2023/05/03 00:17:46;;;;;;;1.27;0.90;;;;;;;14.75;50.37;101592.06;4788742;29;20405;-84
2023/05/03 00:20:12;;;;;;;1.10;0.80;;;;;;;14.66;49.12;101582.16;4788711;29;20035;-83
2023/05/03 00:22:37;;;;;;;1.15;0.90;;;;;;;14.47;49.47;101564.84;4803361;29;20031;-83
2023/05/03 00:25:03;;;;;;;1.42;0.98;;;;;;;14.71;49.44;101595.75;4803896;29;20039;-83
2023/05/03 00:27:29;;;;;;;2.17;1.13;;;;;;;14.53;48.84;101577.53;4803531;29;20117;-83
2023/05/03 00:29:54;;;;;;;2.33;1.17;;;;;;;14.70;48.91;101602.72;4788725;29;20561;-84
2023/05/03 00:32:21;;;;;;;1.77;1.00;;;;;;;14.71;49.34;101593.16;4788805;29;20091;-84
2023/05/03 00:34:51;;;;;;;1.88;1.40;;;;;;;14.69;49.51;101597.59;4788716;29;20034;-84
2023/05/03 00:37:17;;;;;;;1.90;1.10;;;;;;;14.58;49.64;101591.19;4789562;29;20035;-83
2023/05/03 00:39:42;;;;;;;2.33;1.33;;;;;;;14.54;48.87;101581.81;4803196;29;20558;-84
2023/05/03 00:42:07;;;;;;;2.60;0.98;;;;;;;14.54;48.72;101597.44;4803037;29;20493;-84
2023/05/03 00:44:33;;;;;;;1.75;1.15;;;;;;;14.62;48.69;101610.09;4788624;29;20039;-83
2023/05/03 00:46:58;;;;;;;6.00;1.20;;;;;;;14.61;47.90;101614.44;4788549;29;20046;-84
2023/05/03 00:49:24;;;;;;;1.73;0.95;;;;;;;14.66;47.88;101616.00;4788447;29;20034;-83
2023/05/03 00:51:51;;;;;;;1.13;1.00;;;;;;;14.68;47.74;101611.56;4788439;29;20035;-84
2023/05/03 00:54:17;;;;;;;2.08;1.30;;;;;;;14.61;47.94;101618.81;4803368;29;20117;-84
2023/05/03 00:56:43;;;;;;;2.83;1.48;;;;;;;14.64;47.69;101634.28;4803106;29;20046;-84
2023/05/03 00:59:08;;;;;;;1.98;1.27;;;;;;;14.54;47.60;101633.06;4773816;29;20049;-83
2023/05/03 01:01:33;;;;;;;1.77;1.08;;;;;;;14.37;48.02;101605.25;4773295;29;20039;-83
2023/05/03 01:04:03;;;;;;;1.58;1.05;;;;;;;14.49;49.43;101630.69;4803296;29;20035;-83
2023/05/03 01:06:38;;;;;;;2.50;1.35;;;;;;;14.65;48.46;101643.81;4788292;29;20038;-84
2023/05/03 01:09:26;;;;;;;2.65;1.30;;;;;;;14.68;48.11;101650.63;4804157;29;20033;-83
2023/05/03 01:12:13;;;;;;;1.42;1.00;;;;;;;14.70;48.00;101664.41;4802844;29;20031;-83
2023/05/03 01:15:13;;;;;;;1.73;1.23;;;;;;;14.74;47.99;101665.91;4803085;29;20031;-83
2023/05/03 01:17:39;;;;;;;2.58;1.50;;;;;;;14.63;48.75;101662.09;4796249;29;20043;-83
2023/05/03 01:20:12;;;;;;;1.92;1.08;;;;;;;14.67;48.01;101672.38;4773018;29;20103;-83
2023/05/03 01:22:41;;;;;;;1.65;1.13;;;;;;;14.51;47.51;101647.06;4788953;29;20091;-84
2023/05/03 01:25:08;;;;;;;3.30;1.50;;;;;;;14.68;47.52;101672.28;4802602;29;20069;-84
2023/05/03 01:27:34;;;;;;;1.70;1.23;;;;;;;14.64;47.14;101670.75;4787838;29;20066;-83
2023/05/03 01:30:01;;;;;;;1.55;1.05;;;;;;;14.61;47.26;101671.75;4802582;29;20501;-83
2023/05/03 01:32:50;;;;;;;2.33;1.20;;;;;;;14.57;47.63;101661.56;4803134;29;20070;-84
2023/05/03 01:35:39;;;;;;;3.38;1.27;;;;;;;14.46;47.04;101646.47;4801426;29;20137;-83
2023/05/03 01:38:05;;;;;;;1.58;1.02;;;;;;;14.66;46.86;101681.94;4789608;29;20031;-84
2023/05/03 01:40:31;;;;;;;2.03;1.15;;;;;;;14.67;46.36;101680.19;4802206;29;20414;-83
2023/05/03 01:42:56;;;;;;;1.95;1.10;;;;;;;14.60;46.46;101670.06;4787847;29;20026;-83
2023/05/03 01:45:22;;;;;;;2.55;1.50;;;;;;;14.55;46.48;101677.28;4787576;29;20038;-84
2023/05/03 01:47:47;;;;;;;1.60;1.10;;;;;;;14.55;46.85;101679.88;4772642;29;20103;-84
2023/05/03 01:50:13;;;;;;;1.92;1.25;;;;;;;14.48;47.17;101678.47;4787645;29;20554;-83
2023/05/03 01:52:38;;;;;;;1.90;1.30;;;;;;;14.40;47.47;101680.56;4787705;29;20409;-83
2023/05/03 01:55:04;;;;;;;2.70;1.23;;;;;;;14.41;47.70;101674.44;4802351;29;20558;-83
2023/05/03 01:57:30;;;;;;;2.00;1.40;;;;;;;14.23;48.22;101667.50;4802683;29;20093;-83
2023/05/03 01:59:55;;;;;;;3.05;1.50;;;;;;;14.18;48.50;101666.91;4787622;29;20079;-83
2023/05/03 02:02:21;;;;;;;1.45;1.10;;;;;;;14.23;48.20;101667.50;4802516;29;20099;-84
2023/05/03 02:04:46;;;;;;;2.75;1.25;;;;;;;14.16;48.61;101663.50;4772568;29;20047;-83
2023/05/03 02:07:12;;;;;;;2.40;1.20;;;;;;;14.22;48.69;101663.22;4787442;29;20083;-84
2023/05/03 02:09:37;;;;;;;1.42;0.95;;;;;;;14.22;48.66;101668.44;4802200;29;20039;-84
2023/05/03 02:12:03;;;;;;;2.10;1.30;;;;;;;14.18;48.96;101666.91;4802365;29;20049;-83
2023/05/03 02:14:28;;;;;;;1.88;1.23;;;;;;;14.19;49.09;101658.19;4802013;29;20038;-84
2023/05/03 02:16:54;;;;;;;2.40;1.65;;;;;;;14.20;49.01;101659.84;4787318;29;20039;-84
2023/05/03 02:19:20;;;;;;;2.17;1.38;;;;;;;14.09;49.33;101652.56;4787568;29;20082;-83
2023/05/03 02:21:45;;;;;;;1.40;1.10;;;;;;;14.14;48.92;101660.97;4802139;29;20167;-83
2023/05/03 02:24:11;;;;;;;4.65;1.20;;;;;;;14.04;49.21;101670.97;4787016;29;20110;-84
2023/05/03 02:26:36;;;;;;;1.80;1.40;;;;;;;13.91;49.85;101653.41;4802056;29;20417;-83
2023/05/03 02:29:02;;;;;;;2.10;1.30;;;;;;;13.94;49.84;101654.09;4802265;29;20031;-83
2023/05/03 02:31:28;;;;;;;9.90;1.67;;;;;;;13.89;49.96;101656.09;4787251;29;20046;-83
2023/05/03 02:33:54;;;;;;;1.35;1.08;;;;;;;13.76;50.15;101652.34;4802291;29;20466;-83
2023/05/03 02:36:19;;;;;;;5.00;1.75;;;;;;;13.85;49.80;101672.75;4787320;29;20035;-83
2023/05/03 02:38:45;;;;;;;2.47;1.02;;;;;;;13.84;50.37;101659.81;4786784;29;20039;-84
2023/05/03 02:41:11;;;;;;;1.77;1.40;;;;;;;13.73;51.12;101648.16;4787165;29;20054;-84
2023/05/03 02:43:36;;;;;;;2.78;1.70;;;;;;;13.73;50.92;101636.91;4802217;29;20429;-84
2023/05/03 02:46:02;;;;;;;2.65;1.25;;;;;;;13.66;51.12;101628.53;4773471;29;20409;-84
2023/05/03 02:48:27;;;;;;;2.78;2.03;;;;;;;13.52;50.47;101632.69;4790518;29;20081;-83
2023/05/03 02:50:53;;;;;;;3.42;2.25;;;;;;;13.54;50.55;101638.66;4790347;29;20425;-85
2023/05/03 02:53:19;;;;;;;3.63;2.03;;;;;;;13.52;50.35;101609.28;4805195;29;20178;-84
2023/05/03 02:55:45;;;;;;;3.95;2.40;;;;;;;13.29;51.27;101571.34;4790469;29;20481;-84
2023/05/03 02:58:10;;;;;;;3.40;1.90;;;;;;;13.64;50.53;101625.16;4805440;29;20031;-84
2023/05/03 03:00:36;;;;;;;6.05;2.70;;;;;;;13.73;51.14;101639.50;4790232;29;20038;-84
2023/05/03 03:03:01;;;;;;;3.58;1.80;;;;;;;13.68;49.25;101681.34;4775346;29;20038;-84
2023/05/03 03:05:27;;;;;;;1.95;1.63;;;;;;;13.55;49.34;101672.38;4790236;29;20030;-84
2023/05/03 03:07:53;;;;;;;3.35;1.40;;;;;;;13.58;49.09;101642.81;4790210;29;20030;-84
2023/05/03 03:10:18;;;;;;;3.33;1.60;;;;;;;13.54;49.27;101651.66;4790136;29;20027;-84
2023/05/03 03:12:44;;;;;;;1.45;1.27;;;;;;;13.57;49.39;101664.50;4790182;29;20035;-85
2023/05/03 03:15:10;;;;;;;3.13;1.73;;;;;;;13.72;49.37;101702.84;4789894;29;20034;-83
2023/05/03 03:17:38;;;;;;;2.67;1.52;;;;;;;13.72;49.06;101701.06;4790317;29;20561;-85
2023/05/03 03:20:10;;;;;;;9.48;2.55;;;;;;;13.93;49.05;101699.25;4790429;29;20034;-84
2023/05/03 03:22:36;;;;;;;3.05;1.75;;;;;;;13.68;49.22;101667.50;4790221;29;20520;-84
2023/05/03 03:25:01;;;;;;;15.40;3.95;;;;;;;13.86;48.79;101679.63;4774980;29;20047;-84
2023/05/03 03:27:27;;;;;;;2.70;1.60;;;;;;;13.89;49.71;101686.47;4804895;29;20061;-84
2023/05/03 03:29:52;;;;;;;3.42;1.77;;;;;;;13.70;48.86;101669.09;4789834;29;20034;-84
2023/05/03 03:32:17;;;;;;;2.58;1.85;;;;;;;13.79;49.17;101696.44;4804758;29;20042;-84
2023/05/03 03:34:43;;;;;;;2.60;1.40;;;;;;;13.67;49.75;101686.59;4789796;29;20038;-83
2023/05/03 03:37:08;;;;;;;2.88;1.83;;;;;;;13.53;50.08;101699.34;4774417;29;20031;-85
2023/05/03 03:39:34;;;;;;;2.17;1.58;;;;;;;13.56;50.07;101694.00;4788672;29;20035;-89
2023/05/03 03:42:01;;;;;;;2.30;1.33;;;;;;;13.39;50.48;101705.19;4818465;29;20030;-86
2023/05/03 03:44:27;;;;;;;2.15;1.48;;;;;;;13.41;50.73;101700.75;4822299;29;20065;-86
2023/05/03 03:46:52;;;;;;;2.80;1.80;;;;;;;13.39;50.81;101695.63;4807236;29;20424;-84
2023/05/03 03:49:17;;;;;;;5.00;2.60;;;;;;;13.39;50.85;101713.81;4807310;29;20435;-85
2023/05/03 03:51:43;;;;;;;5.07;2.40;;;;;;;13.38;50.93;101712.13;4807033;29;20561;-85
2023/05/03 03:54:08;;;;;;;3.25;1.83;;;;;;;13.40;51.45;101718.09;4807050;29;20034;-85
2023/05/03 03:56:34;;;;;;;1.95;1.27;;;;;;;13.26;51.39;101699.63;4821717;29;20030;-84
2023/05/03 03:58:59;;;;;;;1.98;1.35;;;;;;;13.32;51.20;101721.94;4821743;29;20041;-85
2023/05/03 04:01:25;;;;;;;4.85;3.70;;;;;;;13.37;50.54;101725.16;4799352;29;20553;-85
2023/05/03 04:03:51;;;;;;;4.25;1.92;;;;;;;13.24;50.93;101708.41;4807226;29;20038;-84
2023/05/03 04:06:16;;;;;;;3.08;1.75;;;;;;;13.34;50.87;101728.75;4806524;29;20428;-85
2023/05/03 04:08:42;;;;;;;2.40;1.77;;;;;;;13.11;50.80;101684.69;4791321;29;20038;-85
2023/05/03 04:11:13;;;;;;;3.88;2.13;;;;;;;13.31;51.29;101721.09;4821410;29;20520;-85
2023/05/03 04:13:39;;;;;;;2.60;1.70;;;;;;;13.25;50.96;101697.13;4793502;29;20027;-86
2023/05/03 04:16:05;;;;;;;2.95;1.85;;;;;;;13.32;50.74;101724.53;4801323;29;20071;-84
2023/05/03 04:18:31;;;;;;;3.22;1.88;;;;;;;13.31;51.49;101721.09;4786398;29;20042;-86
2023/05/03 04:20:56;;;;;;;3.03;1.80;;;;;;;13.37;51.49;101745.97;4788509;29;20068;-86
2023/05/03 04:23:22;;;;;;;2.38;1.75;;;;;;;13.38;51.04;101737.28;4807481;29;20038;-87
2023/05/03 04:25:47;;;;;;;1.92;1.48;;;;;;;13.08;51.29;101708.22;4822011;29;20107;-88
2023/05/03 04:28:14;;;;;;;2.55;1.48;;;;;;;13.41;51.10;101768.34;4823276;29;20509;-91
2023/05/03 04:30:43;;;;;;;3.80;1.70;;;;;;;13.43;51.32;101762.16;4817411;29;20038;-93
2023/05/03 04:33:08;;;;;;;2.47;1.52;;;;;;;13.39;51.26;101744.16;4818831;29;20030;-90
2023/05/03 04:35:34;;;;;;;5.35;1.90;;;;;;;13.39;51.16;101739.81;4791881;29;20038;-92
2023/05/03 04:38:01;;;;;;;4.45;1.75;;;;;;;13.40;50.92;101741.50;4795766;29;20034;-91
2023/05/03 04:40:27;;;;;;;2.97;1.55;;;;;;;13.18;51.21;101704.31;4806178;29;20131;-86
2023/05/03 04:42:53;;;;;;;3.97;1.80;;;;;;;13.42;51.49;101741.44;4822982;29;20039;-90
2023/05/03 04:45:20;;;;;;;2.35;1.63;;;;;;;13.37;51.31;101746.84;4805420;29;20077;-88
2023/05/03 04:47:46;;;;;;;4.18;2.20;;;;;;;13.56;50.96;101766.81;4788677;29;20612;-88
2023/05/03 04:50:12;;;;;;;2.55;1.55;;;;;;;13.48;50.85;101756.78;4788457;29;20037;-88
2023/05/03 04:52:38;;;;;;;4.15;1.80;;;;;;;13.56;50.44;101767.66;4801393;29;20042;-95
2023/05/03 04:55:04;;;;;;;3.97;1.30;;;;;;;13.51;50.89;101780.03;4808429;29;20041;-86
2023/05/03 04:57:31;;;;;;;3.78;1.98;;;;;;;13.53;50.81;101782.56;4812150;29;20638;-89
2023/05/03 04:59:56;;;;;;;1.88;1.45;;;;;;;13.51;51.28;101774.81;4801845;29;20030;-88
2023/05/03 05:02:22;;;;;;;1.35;1.08;;;;;;;13.61;50.63;101781.31;4802480;29;20095;-92
2023/05/03 05:04:47;;;;;;;2.83;1.73;;;;;;;13.70;50.53;101782.69;4791102;29;20096;-92
2023/05/03 05:07:13;;;;;;;1.35;1.20;;;;;;;13.71;50.62;101784.38;4788737;29;20122;-89
2023/05/03 05:09:38;;;;;;;2.17;1.40;;;;;;;13.73;50.43;101791.19;4802279;29;20035;-90
2023/05/03 05:12:04;;;;;;;2.40;1.50;;;;;;;13.85;50.70;101783.75;4787847;29;20570;-91
2023/05/03 05:14:30;;;;;;;4.70;1.80;;;;;;;13.96;49.67;101787.59;4790391;29;20572;-88
2023/05/03 05:16:55;;;;;;;1.85;1.33;;;;;;;13.89;49.86;101774.91;4805414;29;20145;-89
2023/05/03 05:19:21;;;;;;;2.10;1.40;;;;;;;13.91;50.53;101781.72;4821475;29;20390;-89
2023/05/03 05:21:47;;;;;;;4.65;2.15;;;;;;;13.94;50.21;101794.59;4818321;29;20438;-93
2023/05/03 05:24:12;;;;;;;1.75;1.40;;;;;;;13.85;49.73;101789.78;4794259;29;20035;-92
2023/05/03 05:26:38;;;;;;;3.22;1.63;;;;;;;13.90;50.65;101798.25;4807063;29;20098;-93
2023/05/03 05:29:03;;;;;;;2.42;1.67;;;;;;;13.90;50.40;101790.44;4792099;29;20065;-92
2023/05/03 05:31:28;;;;;;;3.10;1.40;;;;;;;13.92;49.96;101792.97;4809493;29;20038;-93
2023/05/03 05:33:54;;;;;;;2.53;1.17;;;;;;;13.94;50.39;101783.34;4822113;29;20538;-84
2023/05/03 05:36:19;;;;;;;2.05;1.15;;;;;;;13.93;49.56;101786.84;4824138;29;20033;-85
2023/05/03 05:38:45;;;;;;;2.50;1.42;;;;;;;13.81;50.10;101764.84;4814407;29;20050;-91
2023/05/03 05:41:11;;;;;;;2.70;1.83;;;;;;;14.01;48.99;101784.75;4798426;29;20433;-89
2023/05/03 05:43:36;;;;;;;1.63;1.10;;;;;;;13.94;49.69;101780.75;4815207;29;20035;-83
2023/05/03 05:46:02;;;;;;;2.50;1.42;;;;;;;14.04;48.99;101785.47;4795402;29;20041;-91
2023/05/03 05:48:28;;;;;;;2.58;1.52;;;;;;;14.02;48.97;101797.69;4803246;29;20045;-82
2023/05/03 05:50:53;;;;;;;2.45;1.85;;;;;;;13.90;49.03;101771.41;4809523;29;20525;-88
2023/05/03 05:53:18;;;;;;;2.25;1.48;;;;;;;14.06;48.58;101809.69;4820308;29;20046;-87
2023/05/03 05:55:44;;;;;;;2.53;1.80;;;;;;;13.92;48.45;101790.38;4806088;29;20065;-90
2023/05/03 05:58:11;;;;;;;2.55;1.73;;;;;;;14.09;48.09;101808.69;4820646;29;20051;-89
2023/05/03 06:00:37;;;;;;;3.05;1.83;;;;;;;14.04;48.17;101811.47;4814565;29;20486;-87
2023/05/03 06:03:02;;;;;;;2.92;2.10;;;;;;;14.02;48.51;101802.91;4792880;29;20042;-87
2023/05/03 06:05:28;;;;;;;2.83;1.77;;;;;;;14.27;48.57;101828.69;4819925;29;20436;-92
2023/05/03 06:07:53;;;;;;;2.28;1.45;;;;;;;14.16;47.53;101802.31;4807215;29;20038;-88
2023/05/03 06:10:19;;;;;;;2.90;1.90;;;;;;;14.26;47.84;101823.56;4819854;29;20041;-86
2023/05/03 06:12:44;;;;;;;2.47;1.40;;;;;;;14.29;47.74;101826.00;4820633;29;20037;-93
2023/05/03 06:15:10;;;;;;;1.83;1.20;;;;;;;14.26;47.97;101829.59;4806379;29;20049;-85
2023/05/03 06:17:35;;;;;;;3.05;1.58;;;;;;;14.11;48.65;101832.88;4812707;29;20634;-91
2023/05/03 06:20:01;;;;;;;2.03;1.35;;;;;;;14.22;48.64;101835.00;4806123;29;20066;-85
2023/05/03 06:22:26;;;;;;;3.67;1.92;;;;;;;14.25;49.00;101845.25;4790214;29;20122;-86
2023/05/03 06:24:52;;;;;;;2.45;1.30;;;;;;;14.14;48.71;101829.28;4790196;29;20038;-89
2023/05/03 06:27:17;;;;;;;5.47;1.67;;;;;;;14.24;49.30;101838.38;4807695;29;20038;-91
2023/05/03 06:29:43;;;;;;;3.22;2.20;;;;;;;14.25;49.07;101847.88;4790684;29;20501;-89
2023/05/03 06:32:09;;;;;;;4.88;1.45;;;;;;;14.14;48.85;101842.31;4820631;29;20074;-91
2023/05/03 06:34:34;;;;;;;2.17;1.40;;;;;;;14.15;48.67;101838.78;4822343;29;20067;-90
2023/05/03 06:37:00;;;;;;;1.88;1.30;;;;;;;14.37;48.39;101860.34;4804799;29;20043;-87
2023/05/03 06:39:27;;;;;;;7.03;1.77;;;;;;;14.15;48.64;101824.00;4803117;29;20038;-85
2023/05/03 06:41:52;;;;;;;2.67;1.23;;;;;;;14.25;48.57;101845.25;4800449;29;20507;-87
2023/05/03 06:44:18;;;;;;;9.20;1.52;;;;;;;14.10;48.61;101809.53;4806183;29;20069;-92
2023/05/03 06:46:43;;;;;;;1.67;1.23;;;;;;;14.14;49.22;101831.88;4806244;29;20035;-87
2023/05/03 06:49:09;;;;;;;2.42;1.40;;;;;;;13.95;49.80;101822.28;4805255;29;20031;-85
2023/05/03 06:51:34;;;;;;;1.95;1.30;;;;;;;14.17;49.76;101836.97;4817343;29;20035;-86
2023/05/03 06:54:05;;;;;;;1.73;1.15;;;;;;;14.14;49.74;101843.16;4804739;29;20108;-85
2023/05/03 06:56:31;;;;;;;4.78;1.90;;;;;;;14.24;50.33;101869.59;4804706;29;20034;-85
2023/05/03 06:58:56;;;;;;;2.90;1.40;;;;;;;14.23;49.86;101853.16;4789870;29;20041;-91
2023/05/03 07:01:22;;;;;;;2.53;1.65;;;;;;;14.20;50.40;101857.66;4807911;29;20035;-93
2023/05/03 07:03:47;;;;;;;2.47;1.70;;;;;;;14.20;50.47;101865.47;4807419;29;20042;-87
2023/05/03 07:06:14;;;;;;;3.03;1.98;;;;;;;14.29;50.13;101854.66;4800144;29;20038;-86
2023/05/03 07:08:39;;;;;;;4.35;1.73;;;;;;;14.32;50.01;101867.50;4823737;29;20098;-92
2023/05/03 07:11:05;;;;;;;3.00;2.25;;;;;;;14.20;50.28;101855.06;4808039;29;20034;-90
2023/05/03 07:13:31;;;;;;;6.57;4.38;;;;;;;14.31;50.53;101865.81;4803432;29;20485;-93
2023/05/03 07:15:56;;;;;;;2.92;1.75;;;;;;;14.22;49.61;101867.06;4800921;29;20041;-88
2023/05/03 07:18:22;;;;;;;2.70;1.80;;;;;;;13.89;49.83;101809.56;4788638;29;20117;-89
2023/05/03 07:20:47;;;;;;;7.53;1.77;;;;;;;14.24;49.89;101860.03;4804444;29;20047;-94
2023/05/03 07:23:14;;;;;;;3.00;1.77;;;;;;;13.94;50.44;101809.34;4818149;29;20084;-87
2023/05/03 07:25:40;;;;;;;3.10;2.22;;;;;;;14.37;50.32;101857.75;4804812;29;20493;-92
2023/05/03 07:28:06;;;;;;;4.50;2.15;;;;;;;14.27;50.86;101825.25;4775355;29;20619;-90
2023/05/03 07:30:31;;;;;;;6.65;2.10;;;;;;;14.37;50.78;101818.69;4804071;29;20038;-87
2023/05/03 07:32:56;;;;;;;3.47;2.15;;;;;;;14.58;50.26;101850.75;4806141;29;20122;-88
2023/05/03 07:35:22;;;;;;;2.42;1.58;;;;;;;14.50;50.21;101822.44;4804139;29;20064;-89
2023/05/03 07:37:47;;;;;;;3.90;2.10;;;;;;;14.71;50.11;101845.81;4790413;29;20034;-93
2023/05/03 07:40:13;;;;;;;1.98;1.33;;;;;;;14.33;50.10;101791.94;4790176;29;20055;-89
2023/05/03 07:42:39;;;;;;;2.35;1.50;;;;;;;14.63;50.60;101825.31;4803873;29;20035;-88
2023/05/03 07:45:05;;;;;;;4.05;2.53;;;;;;;14.62;49.94;101842.72;4805620;29;20119;-92
2023/05/03 07:47:31;;;;;;;4.03;1.90;;;;;;;14.70;49.44;101837.16;4789713;29;20481;-88
2023/05/03 07:49:57;;;;;;;3.03;1.83;;;;;;;14.67;49.89;101839.06;4776502;29;20047;-92
2023/05/03 07:52:22;;;;;;;2.42;1.63;;;;;;;14.72;49.88;101842.28;4808223;29;20033;-92
2023/05/03 07:54:48;;;;;;;2.70;1.85;;;;;;;14.75;49.74;101839.53;4804627;29;20414;-90
2023/05/03 07:57:13;;;;;;;3.08;2.00;;;;;;;14.89;49.99;101834.53;4771499;29;20042;-86
2023/05/03 07:59:39;;;;;;;5.18;2.00;;;;;;;15.02;49.19;101821.72;4803459;29;20070;-89
2023/05/03 08:02:05;;;;;;;2.35;1.30;;;;;;;15.36;48.82;101837.44;4804461;29;20035;-90
2023/05/03 08:04:30;;;;;;;2.17;1.52;;;;;;;15.52;48.11;101826.22;4787964;29;20035;-85
2023/05/03 08:06:55;;;;;;;2.50;1.60;;;;;;;15.48;47.83;101804.66;4800159;29;20447;-88
2023/05/03 08:09:22;;;;;;;2.60;1.80;;;;;;;15.37;47.96;101791.34;4808718;29;20049;-90
2023/05/03 08:11:47;;;;;;;3.75;1.95;;;;;;;15.72;48.13;101850.38;4804374;29;20069;-85
2023/05/03 08:14:12;;;;;;;3.92;3.03;;;;;;;15.60;47.88;101803.19;4804943;29;20463;-92
2023/05/03 08:16:38;;;;;;;8.98;1.85;;;;;;;15.84;47.89;101828.06;4804744;29;20034;-85
2023/05/03 08:19:03;;;;;;;2.50;1.58;;;;;;;15.94;47.51;101844.09;4803237;29;20042;-86
2023/05/03 08:21:29;;;;;;;7.10;2.03;;;;;;;15.93;47.72;101840.63;4803255;29;20042;-85
2023/05/03 08:23:55;;;;;;;3.28;2.05;;;;;;;15.81;47.82;101811.72;4787841;29;20121;-87
2023/05/03 08:26:23;;;;;;;2.58;1.98;;;;;;;16.04;47.71;101824.41;4818616;29;20088;-90
2023/05/03 08:28:49;;;;;;;5.45;2.30;;;;;;;16.09;46.88;101827.59;4803812;29;20408;-90
2023/05/03 08:31:15;;;;;;;3.15;2.03;;;;;;;16.20;47.05;101822.66;4804014;29;20031;-92
2023/05/03 08:33:40;;;;;;;2.35;1.42;;;;;;;16.05;46.93;101813.03;4805405;29;20035;-92
2023/05/03 08:36:06;;;;;;;5.53;2.10;;;;;;;16.04;46.93;101816.59;4802784;29;20466;-89
2023/05/03 08:38:32;;;;;;;5.47;3.05;;;;;;;16.12;47.22;101837.03;4803279;29;20093;-88
2023/05/03 08:40:58;;;;;;;5.65;2.13;;;;;;;16.23;47.38;101825.13;4786818;29;20103;-93
2023/05/03 08:43:26;;;;;;;4.47;2.00;;;;;;;16.59;46.28;101839.72;4795206;29;20564;-91
2023/05/03 08:45:51;;;;;;;4.88;2.42;;;;;;;16.72;45.99;101827.72;4791884;29;20046;-85
2023/05/03 08:48:17;;;;;;;3.03;2.00;;;;;;;16.77;45.39;101824.81;4801280;29;20068;-88
2023/05/03 08:50:43;;;;;;;4.00;2.10;;;;;;;16.73;45.62;101823.31;4812487;29;20049;-93
2023/05/03 08:53:09;;;;;;;6.93;1.92;;;;;;;16.62;46.56;101805.59;4804006;29;20064;-89
2023/05/03 08:55:35;;;;;;;8.93;2.13;;;;;;;16.89;45.24;101827.59;4803694;29;20026;-91
2023/05/03 08:58:00;;;;;;;5.63;1.90;;;;;;;16.89;45.78;101827.59;4800103;29;20516;-91
2023/05/03 09:00:29;;;;;;;3.17;1.83;;;;;;;16.91;46.05;101817.91;4785372;29;20027;-90
2023/05/03 09:02:55;;;;;;;4.05;2.00;;;;;;;16.80;44.90;101809.81;4809710;29;20035;-88
2023/05/03 09:05:20;;;;;;;4.22;1.90;;;;;;;16.92;45.69;101829.22;4805398;29;20062;-89
2023/05/03 09:08:09;;;;;;;2.90;2.13;;;;;;;16.85;45.66;101838.31;4800970;29;20026;-90
2023/05/03 09:10:39;;;;;;;4.40;2.08;;;;;;;16.92;45.54;101835.28;4800814;29;20046;-87
2023/05/03 09:13:05;;;;;;;4.80;3.05;;;;;;;16.92;45.00;101830.03;4800796;29;20103;-86
2023/05/03 09:15:30;;;;;;;3.03;1.70;;;;;;;16.92;45.43;101823.97;4786278;29;20037;-84
2023/05/03 09:18:10;;;;;;;3.55;1.73;;;;;;;16.86;45.23;101809.47;4800531;29;20039;-84
2023/05/03 09:20:37;;;;;;;3.08;1.85;;;;;;;16.95;45.02;101812.50;4800794;29;20035;-89
2023/05/03 09:23:03;;;;;;;4.75;2.10;;;;;;;16.98;45.64;101800.09;4800015;29;20126;-87
2023/05/03 09:25:41;;;;;;;2.78;1.90;;;;;;;17.18;45.30;101827.69;4800207;29;20035;-88
2023/05/03 09:28:07;;;;;;;2.50;1.73;;;;;;;17.24;44.87;101819.50;4800931;29;20031;-89
2023/05/03 09:30:33;;;;;;;3.60;1.90;;;;;;;17.08;44.85;101776.88;4786968;29;20068;-90
2023/05/03 09:32:58;;;;;;;4.82;2.00;;;;;;;17.51;45.05;101811.00;4815907;29;20707;-87
2023/05/03 09:35:24;;;;;;;4.50;1.92;;;;;;;17.65;44.68;101795.28;4819314;29;20049;-89
2023/05/03 09:37:50;;;;;;;6.60;1.70;;;;;;;17.70;44.13;101796.75;4804690;29;20038;-88
2023/05/03 09:40:17;;;;;;;2.75;1.85;;;;;;;17.58;44.34;101783.50;4789921;29;20119;-85
2023/05/03 09:43:09;;;;;;;7.60;2.03;;;;;;;17.78;44.27;101804.13;4820508;29;20052;-92
2023/05/03 09:45:37;;;;;;;2.35;1.80;;;;;;;17.68;43.79;101782.03;4819325;29;20037;-85
2023/05/03 09:48:03;;;;;;;4.00;2.20;;;;;;;17.68;43.47;101776.78;4787580;29;20043;-85
2023/05/03 09:50:33;;;;;;;4.03;2.30;;;;;;;17.45;44.24;101767.72;4786366;29;20039;-90
2023/05/03 09:53:03;;;;;;;4.13;1.92;;;;;;;17.59;44.19;101769.50;4809717;29;20042;-87
2023/05/03 09:55:32;;;;;;;4.40;1.70;;;;;;;17.64;44.21;101775.31;4781789;29;20565;-90
2023/05/03 09:57:57;;;;;;;7.70;2.05;;;;;;;17.71;45.08;101771.41;4818111;29;20510;-87
2023/05/03 10:00:24;;;;;;;5.18;2.00;;;;;;;17.75;43.85;101776.38;4801651;29;20046;-87
2023/05/03 10:02:50;;;;;;;3.25;1.90;;;;;;;17.82;43.72;101773.38;4819503;29;20117;-93
2023/05/03 10:05:15;;;;;;;7.20;4.85;;;;;;;17.74;44.41;101752.91;4805030;29;20049;-85
2023/05/03 10:07:41;;;;;;;2.75;2.00;;;;;;;17.63;44.33;101735.22;4805369;29;20442;-92
2023/05/03 10:10:07;;;;;;;4.35;2.00;;;;;;;17.85;43.79;101747.84;4820221;29;20035;-86
2023/05/03 10:12:34;;;;;;;2.35;1.70;;;;;;;17.98;43.65;101764.47;4804836;29;20038;-87
2023/05/03 10:15:00;;;;;;;6.05;2.03;;;;;;;18.06;44.49;101762.22;4803344;29;20413;-86
2023/05/03 10:17:29;;;;;;;3.00;1.95;;;;;;;18.19;43.14;101745.72;4804933;29;20037;-88
2023/05/03 10:19:54;;;;;;;4.15;1.80;;;;;;;18.32;43.11;101757.13;4821844;29;20493;-86
2023/05/03 10:22:19;;;;;;;2.28;1.50;;;;;;;18.56;43.34;101766.03;4821328;29;20032;-89
2023/05/03 10:25:01;;;;;;;3.55;1.80;;;;;;;18.78;43.39;101743.69;4821272;29;20045;-93
2023/05/03 10:27:44;;;;;;;5.57;2.20;;;;;;;18.97;42.64;101759.06;4821505;29;20134;-93
2023/05/03 10:30:33;;;;;;;3.25;1.80;;;;;;;19.01;42.54;101750.91;4824839;29;20030;-91
2023/05/03 10:33:19;;;;;;;2.50;1.67;;;;;;;18.95;42.23;101732.09;4821728;29;20033;-89
2023/05/03 10:35:51;;;;;;;4.63;2.20;;;;;;;19.06;42.79;101748.78;4801717;29;20042;-88
2023/05/03 10:38:20;;;;;;;6.47;1.85;;;;;;;19.03;42.19;101751.63;4786639;29;20066;-89
2023/05/03 10:40:45;;;;;;;3.30;1.90;;;;;;;18.90;42.26;101735.88;4787073;29;20058;-85
2023/05/03 10:43:29;;;;;;;3.38;2.30;;;;;;;19.08;42.31;101749.56;4801949;29;20092;-85
2023/05/03 10:46:01;;;;;;;4.55;2.38;;;;;;;18.96;42.20;101752.13;4806324;29;20042;-91
2023/05/03 10:48:27;;;;;;;2.25;1.50;;;;;;;18.87;43.17;101748.34;4772208;29;20421;-86
2023/05/03 10:50:53;;;;;;;2.25;1.58;;;;;;;18.79;43.74;101729.69;4785732;29;20039;-84
2023/05/03 10:53:31;;;;;;;3.05;1.75;;;;;;;18.67;44.66;101710.31;4803008;29;20038;-88
2023/05/03 10:56:10;;;;;;;3.88;1.70;;;;;;;18.76;43.56;101743.81;4803820;29;20031;-85
2023/05/03 10:58:37;;;;;;;4.25;2.00;;;;;;;18.52;44.05;101722.63;4816850;29;20031;-84
2023/05/03 11:01:06;;;;;;;4.82;2.20;;;;;;;18.69;44.35;101733.84;4815990;29;20051;-90
2023/05/03 11:04:02;;;;;;;3.67;2.25;;;;;;;18.82;43.82;101745.19;4801404;29;20042;-90
2023/05/03 11:06:39;;;;;;;5.07;2.05;;;;;;;18.93;43.68;101726.97;4802523;29;20095;-89
2023/05/03 11:09:06;;;;;;;3.65;1.85;;;;;;;18.83;43.42;101720.66;4804685;29;20163;-86
2023/05/03 11:11:32;;;;;;;4.03;2.10;;;;;;;18.66;44.44;101699.94;4804468;29;20027;-88
2023/05/03 11:13:57;;;;;;;4.10;1.95;;;;;;;18.62;44.24;101723.72;4805342;29;20035;-93
2023/05/03 11:16:23;;;;;;;3.63;2.20;;;;;;;18.44;44.74;101719.66;4805857;29;20039;-87
2023/05/03 11:18:48;;;;;;;3.72;2.10;;;;;;;18.13;45.25;101714.72;4804120;29;20046;-89
2023/05/03 11:21:14;;;;;;;3.40;1.90;;;;;;;17.93;45.17;101729.91;4796995;29;20030;-90
2023/05/03 11:23:40;;;;;;;7.53;2.15;;;;;;;17.74;45.64;101708.41;4816043;29;20214;-88